Time;durP1;ratioP1;P1;durP2;ratioP2;P2;SDS_P1;SDS_P2;PMS_P1;PMS_P2;Temp;Humidity;BMP_temperature;BMP_pressure;BME280_temperature;BME280_humidity;BME280_pressure;Samples;Min_cycle;Max_cycle;Signal;HPM_P1;HPM_P2
2022/03/29 00:00:57;;;;;;;;;;;;;;;10.00;49.47;95479.09;5116366;28;1027;-50
2022/03/29 00:03:23;;;;;;;;;;;;;;;9.92;49.97;95477.16;5116068;28;1907;-51
2022/03/29 00:05:49;;;;;;;;;;;;;;;9.91;51.00;95486.19;5116219;28;991;-50
2022/03/29 00:08:15;;;;;;;;;;;;;;;9.90;51.29;95473.81;5116353;28;968;-51
2022/03/29 00:10:41;;;;;;;;;;;;;;;10.03;51.06;95471.63;5116433;28;1039;-51
2022/03/29 00:13:07;;;;;;;;;;;;;;;10.07;50.22;95469.50;5115681;28;1083;-50
2022/03/29 00:22:05;;;;;;;;;;;;;;;9.78;51.08;95465.16;5115665;28;1996;-50
2022/03/29 00:24:31;;;;;;;;;;;;;;;9.69;50.94;95460.72;5115946;28;1055;-51
2022/03/29 00:26:58;;;;;;;;;;;;;;;9.79;50.86;95456.19;5115698;28;1086;-51
2022/03/29 00:29:24;;;;;;;;;;;;;;;9.86;50.77;95451.91;5115911;28;1035;-51
2022/03/29 00:31:50;;;;;;;;;;;;;;;9.70;50.42;95447.22;5115804;28;993;-50
2022/03/29 00:34:16;;;;;;;;;;;;;;;9.60;50.47;95450.91;5115500;28;1114;-50
2022/03/29 00:36:42;;;;;;;;;;;;;;;9.77;49.64;95445.66;5115520;28;1035;-51
2022/03/29 00:39:08;;;;;;;;;;;;;;;9.86;50.12;95429.69;5115573;28;1015;-50
2022/03/29 00:41:34;;;;;;;;;;;;;;;9.79;50.41;95426.81;5115863;28;957;-51
2022/03/29 00:44:00;;;;;;;;;;;;;;;9.56;50.21;95424.53;5115193;28;1984;-51
2022/03/29 00:46:26;;;;;;;;;;;;;;;9.37;50.79;95421.94;5115796;28;1008;-50
2022/03/29 00:48:52;;;;;;;;;;;;;;;9.27;50.97;95426.47;5115617;28;992;-51
2022/03/29 00:51:18;;;;;;;;;;;;;;;9.46;50.56;95417.56;5121907;27;1164;-51
2022/03/29 00:53:45;;;;;;;;;;;;;;;9.57;50.87;95412.84;5135778;27;960;-50
2022/03/29 00:56:12;;;;;;;;;;;;;;;9.29;50.68;95412.00;5135857;27;1852;-50
2022/03/29 00:58:38;;;;;;;;;;;;;;;8.77;51.76;95407.13;5135813;27;1104;-51
2022/03/29 01:01:05;;;;;;;;;;;;;;;8.78;51.77;95402.63;5135936;27;1188;-50
2022/03/29 01:03:31;;;;;;;;;;;;;;;9.14;50.98;95398.31;5135446;27;1946;-51
2022/03/29 01:05:57;;;;;;;;;;;;;;;9.30;51.11;95400.34;5135457;27;1213;-51
2022/03/29 01:08:25;;;;;;;;;;;;;;;9.32;50.58;95393.03;5135314;27;1958;-51
2022/03/29 01:10:51;;;;;;;;;;;;;;;9.35;51.88;95392.75;5135666;27;1047;-51
2022/03/29 01:13:17;;;;;;;;;;;;;;;9.22;52.01;95394.91;5135479;27;1053;-51
2022/03/29 01:15:44;;;;;;;;;;;;;;;8.87;52.34;95384.91;5135828;27;971;-51
2022/03/29 01:18:11;;;;;;;;;;;;;;;8.61;52.61;95385.53;5135389;27;1074;-51
2022/03/29 01:20:38;;;;;;;;;;;;;;;8.40;53.13;95378.53;5135127;27;1042;-51
2022/03/29 01:23:05;;;;;;;;;;;;;;;8.66;52.61;95367.28;5135136;27;1906;-51
2022/03/29 01:25:34;;;;;;;;;;;;;;;8.67;52.81;95362.78;5134906;27;1079;-51
2022/03/29 01:28:01;;;;;;;;;;;;;;;8.32;53.20;95358.91;5134737;27;1016;-51
2022/03/29 01:30:27;;;;;;;;;;;;;;;7.97;53.97;95355.00;5134993;27;1064;-51
2022/03/29 01:32:53;;;;;;;;;;;;;;;7.91;54.58;95355.56;5135125;27;972;-51
2022/03/29 01:35:22;;;;;;;;;;;;;;;7.83;54.42;95342.94;5134837;27;1208;-51
2022/03/29 01:37:48;;;;;;;;;;;;;;;7.46;55.35;95340.13;5134907;27;1007;-50
2022/03/29 01:40:15;;;;;;;;;;;;;;;7.33;55.77;95335.03;5135038;27;965;-51
2022/03/29 01:43:11;;;;;;;;;;;;;;;7.54;55.66;95332.28;5134958;27;1965;-51
2022/03/29 01:45:37;;;;;;;;;;;;;;;7.66;55.55;95325.84;5117729;27;1325;-51
2022/03/29 01:48:03;;;;;;;;;;;;;;;7.31;55.84;95326.38;5134716;27;972;-50
2022/03/29 01:50:30;;;;;;;;;;;;;;;7.58;56.04;95323.88;5134504;27;1110;-51
2022/03/29 01:52:56;;;;;;;;;;;;;;;7.85;56.11;95330.31;5114401;27;1196;-51
2022/03/29 01:55:22;;;;;;;;;;;;;;;7.32;56.29;95312.06;5114321;28;954;-50
2022/03/29 01:57:49;;;;;;;;;;;;;;;7.42;55.72;95312.94;5114200;28;1016;-51
2022/03/29 02:00:49;;;;;;;;;;;;;;;7.72;55.58;95313.78;5114181;28;992;-51
2022/03/29 02:03:09;;;;;;;;;;;;;;;7.54;54.37;95317.16;5111095;28;1910;-50
2022/03/29 02:05:35;;;;;;;;;;;;;;;7.01;56.55;95314.81;5113991;28;1024;-51
2022/03/29 02:08:02;;;;;;;;;;;;;;;7.08;57.04;95318.59;5114457;28;968;-50
2022/03/29 02:10:28;;;;;;;;;;;;;;;7.08;56.37;95315.94;5113862;28;1003;-51
2022/03/29 02:12:54;;;;;;;;;;;;;;;6.97;56.67;95308.91;5113741;28;953;-51
2022/03/29 02:15:20;;;;;;;;;;;;;;;7.16;56.84;95296.66;5113681;28;1077;-51
2022/03/29 02:17:48;;;;;;;;;;;;;;;7.28;56.55;95295.53;5114074;28;989;-51
2022/03/29 02:20:14;;;;;;;;;;;;;;;7.21;56.84;95297.94;5113534;28;1013;-51
2022/03/29 02:22:41;;;;;;;;;;;;;;;6.91;57.07;95292.69;5113866;28;1913;-51
2022/03/29 02:25:07;;;;;;;;;;;;;;;6.65;57.72;95296.63;5113585;28;1091;-51
2022/03/29 02:27:33;;;;;;;;;;;;;;;6.77;57.37;95300.03;5113878;28;961;-50
2022/03/29 02:29:59;;;;;;;;;;;;;;;6.89;57.98;95292.81;5113418;28;1861;-51
2022/03/29 02:32:25;;;;;;;;;;;;;;;6.50;57.59;95297.94;5113684;28;1091;-51
2022/03/29 02:34:51;;;;;;;;;;;;;;;6.62;58.68;95296.03;5113630;28;1039;-51
2022/03/29 02:37:17;;;;;;;;;;;;;;;6.55;58.10;95289.59;5113690;28;1033;-51
2022/03/29 02:39:43;;;;;;;;;;;;;;;6.53;58.28;95291.56;5116541;28;1039;-50
2022/03/29 02:42:09;;;;;;;;;;;;;;;6.47;58.48;95287.59;5118080;28;1938;-50
2022/03/29 02:44:35;;;;;;;;;;;;;;;6.58;58.81;95290.19;5118028;28;1068;-50
2022/03/29 02:47:01;;;;;;;;;;;;;;;6.58;58.36;95287.53;5117798;28;968;-51
2022/03/29 02:49:27;;;;;;;;;;;;;;;6.40;58.31;95281.13;5117832;28;1016;-51
2022/03/29 02:51:53;;;;;;;;;;;;;;;6.43;58.42;95284.38;5128672;27;1156;-51
2022/03/29 02:54:19;;;;;;;;;;;;;;;6.37;59.02;95295.50;5138195;27;1079;-51
2022/03/29 02:56:46;;;;;;;;;;;;;;;6.11;59.55;95284.47;5137971;27;1019;-51
2022/03/29 02:59:13;;;;;;;;;;;;;;;6.13;59.36;95281.66;5138050;27;1028;-51
2022/03/29 03:01:39;;;;;;;;;;;;;;;6.16;59.30;95286.72;5138247;27;956;-51
2022/03/29 03:04:07;;;;;;;;;;;;;;;6.27;59.81;95288.47;5137982;27;1910;-51
2022/03/29 03:06:34;;;;;;;;;;;;;;;6.24;59.26;95285.13;5138152;27;1028;-51
2022/03/29 03:09:01;;;;;;;;;;;;;;;6.28;59.33;95291.00;5138028;27;924;-51
2022/03/29 03:11:27;;;;;;;;;;;;;;;6.37;59.88;95299.97;5137970;27;961;-51
2022/03/29 03:13:53;;;;;;;;;;;;;;;6.28;59.54;95290.16;5137489;27;1023;-51
2022/03/29 03:16:19;;;;;;;;;;;;;;;6.18;59.84;95296.22;5137845;27;996;-51
2022/03/29 03:18:45;;;;;;;;;;;;;;;6.31;59.67;95300.50;5137794;27;1047;-50
2022/03/29 03:21:11;;;;;;;;;;;;;;;6.64;58.56;95292.28;5137543;27;1016;-50
2022/03/29 03:23:37;;;;;;;;;;;;;;;6.56;58.48;95293.94;5137662;27;1971;-50
2022/03/29 03:26:03;;;;;;;;;;;;;;;6.50;59.09;95294.47;5137345;27;1194;-51
2022/03/29 03:28:29;;;;;;;;;;;;;;;6.20;59.05;95294.31;5137787;27;980;-50
2022/03/29 03:30:55;;;;;;;;;;;;;;;5.87;60.60;95292.66;5137555;27;980;-50
2022/03/29 03:33:21;;;;;;;;;;;;;;;5.54;61.96;95293.66;5137669;27;964;-51
2022/03/29 03:35:47;;;;;;;;;;;;;;;5.77;61.88;95297.06;5137675;27;955;-50
2022/03/29 03:38:13;;;;;;;;;;;;;;;5.73;60.96;95292.97;5137699;27;1041;-51
2022/03/29 03:40:41;;;;;;;;;;;;;;;5.40;62.15;95298.28;5137440;27;1116;-51
2022/03/29 03:43:07;;;;;;;;;;;;;;;5.44;62.34;95296.22;5137123;27;1909;-51
2022/03/29 03:45:34;;;;;;;;;;;;;;;5.68;62.16;95296.00;5137133;27;1032;-50
2022/03/29 03:48:00;;;;;;;;;;;;;;;5.52;62.26;95300.88;5137264;27;961;-50
2022/03/29 03:50:26;;;;;;;;;;;;;;;5.48;62.58;95302.94;5136269;27;1079;-50
2022/03/29 03:52:54;;;;;;;;;;;;;;;5.70;62.06;95295.88;5117333;27;1160;-50
2022/03/29 03:55:23;;;;;;;;;;;;;;;5.65;62.16;95297.13;5116740;28;1068;-50
2022/03/29 03:57:49;;;;;;;;;;;;;;;5.56;62.72;95295.22;5116350;28;1062;-50
2022/03/29 04:00:15;;;;;;;;;;;;;;;5.61;62.27;95308.94;5116737;28;956;-49
2022/03/29 04:02:41;;;;;;;;;;;;;;;5.62;62.34;95305.31;5116104;28;1991;-50
2022/03/29 04:05:12;;;;;;;;;;;;;;;5.12;61.94;95314.75;5116121;28;1028;-49
2022/03/29 04:07:38;;;;;;;;;;;;;;;5.25;63.52;95313.66;5116184;28;1024;-49
2022/03/29 04:10:05;;;;;;;;;;;;;;;5.58;62.53;95325.13;5115990;28;1008;-49
2022/03/29 04:12:32;;;;;;;;;;;;;;;5.95;62.76;95318.56;5115920;28;1025;-49
2022/03/29 04:14:58;;;;;;;;;;;;;;;5.66;61.32;95319.19;5116195;28;992;-49
2022/03/29 04:17:24;;;;;;;;;;;;;;;5.49;62.34;95317.91;5116109;28;968;-49
2022/03/29 04:19:50;;;;;;;;;;;;;;;5.70;62.42;95312.66;5116174;28;1029;-49
2022/03/29 04:22:18;;;;;;;;;;;;;;;5.27;61.91;95317.03;5115687;28;1985;-49
2022/03/29 04:24:44;;;;;;;;;;;;;;;4.92;64.57;95321.66;5115834;28;1012;-49
2022/03/29 04:27:10;;;;;;;;;;;;;;;5.00;64.34;95322.72;5115507;28;1115;-49
2022/03/29 04:29:36;;;;;;;;;;;;;;;5.21;63.85;95320.16;5116063;27;970;-50
2022/03/29 04:32:03;;;;;;;;;;;;;;;5.28;61.86;95312.56;5115702;28;984;-50
2022/03/29 04:34:29;;;;;;;;;;;;;;;4.96;63.54;95323.09;5115628;28;1075;-49
2022/03/29 04:36:58;;;;;;;;;;;;;;;5.00;63.79;95328.03;5115703;28;1004;-49
2022/03/29 04:39:25;;;;;;;;;;;;;;;5.30;63.10;95328.34;5115658;28;1011;-49
2022/03/29 04:41:51;;;;;;;;;;;;;;;5.20;62.79;95321.13;5115413;28;1060;-49
2022/03/29 04:44:17;;;;;;;;;;;;;;;5.09;63.25;95323.81;5115418;28;1987;-49
2022/03/29 04:46:43;;;;;;;;;;;;;;;5.47;62.96;95314.53;5115307;28;1028;-49
2022/03/29 04:49:09;;;;;;;;;;;;;;;5.59;62.97;95321.47;5115577;28;1231;-49
2022/03/29 04:51:35;;;;;;;;;;;;;;;5.38;63.08;95310.81;5124501;27;1216;-49
2022/03/29 04:54:02;;;;;;;;;;;;;;;5.56;63.08;95311.13;5135544;27;1011;-50
2022/03/29 04:56:29;;;;;;;;;;;;;;;5.76;62.40;95306.81;5136164;27;1014;-50
2022/03/29 04:58:55;;;;;;;;;;;;;;;6.14;61.85;95310.75;5135874;27;980;-49
2022/03/29 05:01:21;;;;;;;;;;;;;;;6.23;61.71;95314.44;5135681;27;1019;-49
2022/03/29 05:03:47;;;;;;;;;;;;;;;6.21;61.42;95316.41;5134487;27;1910;-49
2022/03/29 05:06:13;;;;;;;;;;;;;;;6.17;61.22;95309.66;5135763;27;1027;-50
2022/03/29 05:08:39;;;;;;;;;;;;;;;6.09;61.85;95309.44;5135701;27;1056;-50
2022/03/29 05:11:05;;;;;;;;;;;;;;;6.18;62.23;95312.16;5135528;27;986;-49
2022/03/29 05:13:32;;;;;;;;;;;;;;;6.34;61.67;95313.53;5135524;27;965;-50
2022/03/29 05:15:58;;;;;;;;;;;;;;;6.48;61.52;95312.34;5135609;27;1023;-49
2022/03/29 05:18:24;;;;;;;;;;;;;;;6.72;60.82;95312.88;5135381;27;968;-49
2022/03/29 05:20:51;;;;;;;;;;;;;;;6.64;60.75;95304.75;5135558;27;1081;-50
2022/03/29 05:23:17;;;;;;;;;;;;;;;6.57;61.53;95303.59;5135316;27;1996;-49
2022/03/29 05:25:43;;;;;;;;;;;;;;;6.77;62.18;95308.03;5135306;27;1356;-49
2022/03/29 05:28:09;;;;;;;;;;;;;;;7.04;61.64;95317.19;5135254;27;1015;-49
2022/03/29 05:30:36;;;;;;;;;;;;;;;7.36;61.34;95309.03;5135154;27;1024;-50
2022/03/29 05:33:02;;;;;;;;;;;;;;;7.71;60.00;95307.63;5134930;27;945;-51
2022/03/29 05:35:30;;;;;;;;;;;;;;;8.25;59.30;95316.00;5135230;27;1007;-51
2022/03/29 05:37:57;;;;;;;;;;;;;;;8.51;58.74;95308.28;5135087;27;973;-50
2022/03/29 05:40:24;;;;;;;;;;;;;;;8.70;57.97;95309.19;5135162;27;1032;-50
2022/03/29 05:42:51;;;;;;;;;;;;;;;8.94;57.02;95316.69;5134407;27;1994;-50
2022/03/29 05:45:18;;;;;;;;;;;;;;;9.04;57.59;95320.16;5135237;27;1039;-50
2022/03/29 05:50:29;;;;;;;;;;;;;;;9.33;56.53;95313.81;5134833;27;1032;-51
2022/03/29 05:52:56;;;;;;;;;;;;;;;9.63;55.66;95303.78;5114488;27;1140;-51
2022/03/29 05:55:22;;;;;;;;;;;;;;;9.95;54.18;95305.94;5114152;28;1866;-50
2022/03/29 05:57:49;;;;;;;;;;;;;;;10.30;53.63;95314.91;5114261;28;996;-51
2022/03/29 06:00:17;;;;;;;;;;;;;;;10.49;53.30;95313.91;5114072;28;1145;-50
2022/03/29 06:02:43;;;;;;;;;;;;;;;10.80;52.17;95305.41;5113902;28;1913;-51
2022/03/29 06:05:09;;;;;;;;;;;;;;;11.18;51.90;95304.09;5113937;28;1024;-50
2022/03/29 06:07:35;;;;;;;;;;;;;;;11.37;51.22;95303.00;5114421;28;1040;-50
2022/03/29 06:10:05;;;;;;;;;;;;;;;11.85;50.19;95300.59;5113782;28;1029;-50
2022/03/29 06:12:32;;;;;;;;;;;;;;;11.98;49.84;95303.66;5113949;28;1039;-50
2022/03/29 06:15:01;;;;;;;;;;;;;;;12.23;49.37;95309.03;5113579;28;1023;-49
2022/03/29 06:17:27;;;;;;;;;;;;;;;12.48;48.42;95320.56;5114044;28;1067;-50
2022/03/29 06:19:54;;;;;;;;;;;;;;;12.85;48.43;95303.09;5113590;28;1056;-50
2022/03/29 06:22:20;;;;;;;;;;;;;;;13.09;46.49;95311.09;5113944;28;1975;-50
2022/03/29 06:28:10;;;;;;;;;;;;;;;14.44;44.52;95302.75;3168667;28;1885;-51
2022/03/29 06:30:38;;;;;;;;;;;;;;;14.91;42.58;95303.53;5113973;28;1088;-50
2022/03/29 06:33:04;;;;;;;;;;;;;;;15.39;42.40;95308.56;5113714;28;940;-51
2022/03/29 06:35:31;;;;;;;;;;;;;;;15.90;41.42;95305.91;5113512;28;1019;-51
2022/03/29 06:37:58;;;;;;;;;;;;;;;17.00;39.17;95308.34;5113878;28;1027;-52
2022/03/29 06:40:25;;;;;;;;;;;;;;;17.76;36.87;95300.25;5113597;28;1008;-50
2022/03/29 06:42:52;;;;;;;;;;;;;;;18.16;35.92;95307.69;5113450;28;2253;-51
2022/03/29 06:45:18;;;;;;;;;;;;;;;19.28;34.93;95309.63;5113734;28;1071;-50
2022/03/29 06:47:44;;;;;;;;;;;;;;;20.44;32.69;95309.81;5113760;28;1048;-50
2022/03/29 06:50:11;;;;;;;;;;;;;;;21.61;31.01;95312.81;5113525;28;1003;-51
2022/03/29 06:52:37;;;;;;;;;;;;;;;23.03;28.52;95310.75;5131276;28;1156;-51
2022/03/29 06:55:04;;;;;;;;;;;;;;;23.61;27.83;95314.53;5133709;28;1095;-51
2022/03/29 06:57:31;;;;;;;;;;;;;;;24.28;27.41;95311.31;5134041;27;1003;-52
2022/03/29 06:59:56;;;;;;;;;;;;;;;24.86;26.46;95316.78;5133764;27;1059;-51
2022/03/29 07:02:23;;;;;;;;;;;;;;;25.12;25.55;95318.03;5133755;28;1906;-51
2022/03/29 07:04:48;;;;;;;;;;;;;;;25.35;25.87;95316.25;5133840;28;1091;-52
2022/03/29 07:07:14;;;;;;;;;;;;;;;26.54;24.16;95314.81;5133899;28;1055;-52
2022/03/29 07:12:25;;;;;;;;;;;;;;;26.92;23.66;95307.56;5133699;27;979;-53
2022/03/29 07:14:51;;;;;;;;;;;;;;;27.00;23.53;95309.81;5133866;28;971;-52
2022/03/29 07:17:18;;;;;;;;;;;;;;;27.70;23.14;95314.47;5133696;28;917;-52
2022/03/29 07:19:46;;;;;;;;;;;;;;;27.16;23.35;95308.00;5133562;27;1082;-52
2022/03/29 07:22:12;;;;;;;;;;;;;;;27.07;23.35;95304.09;5133720;27;1988;-52
2022/03/29 07:24:38;;;;;;;;;;;;;;;27.38;22.92;95307.13;5133510;27;1087;-52
2022/03/29 07:27:04;;;;;;;;;;;;;;;27.05;23.10;95301.63;5137176;27;1059;-52
2022/03/29 07:29:31;;;;;;;;;;;;;;;26.13;23.99;95300.63;5137263;27;1098;-52
2022/03/29 07:31:57;;;;;;;;;;;;;;;24.46;26.17;95293.88;5137532;27;1182;-51
2022/03/29 07:34:23;;;;;;;;;;;;;;;24.25;26.46;95289.13;5137302;27;1872;-52
2022/03/29 07:36:49;;;;;;;;;;;;;;;20.82;30.68;95285.31;5137414;27;983;-52
2022/03/29 07:39:15;;;;;;;;;;;;;;;18.97;34.19;95279.66;5137507;27;952;-52
2022/03/29 07:41:41;;;;;;;;;;;;;;;19.13;33.97;95279.22;5137566;27;972;-51
2022/03/29 07:44:07;;;;;;;;;;;;;;;22.30;30.03;95281.84;5137221;27;1988;-51
2022/03/29 07:46:33;;;;;;;;;;;;;;;24.30;27.20;95273.66;5137097;27;980;-52
2022/03/29 07:48:59;;;;;;;;;;;;;;;21.36;30.65;95272.06;5137224;27;945;-52
2022/03/29 07:51:25;;;;;;;;;;;;;;;21.19;30.83;95274.53;5129528;27;1152;-52
2022/03/29 07:53:51;;;;;;;;;;;;;;;21.24;31.36;95263.78;5116713;28;1015;-52
2022/03/29 07:56:17;;;;;;;;;;;;;;;21.16;31.00;95266.81;5116546;28;1048;-50
2022/03/29 07:58:43;;;;;;;;;;;;;;;22.14;29.97;95259.63;5116764;28;1095;-51
2022/03/29 08:01:09;;;;;;;;;;;;;;;20.33;31.69;95250.78;5116305;28;1138;-51
2022/03/29 08:03:35;;;;;;;;;;;;;;;20.19;33.21;95250.84;5116607;28;1988;-51
2022/03/29 08:06:02;;;;;;;;;;;;;;;20.13;31.96;95240.03;5116357;28;981;-52
2022/03/29 08:08:29;;;;;;;;;;;;;;;20.98;31.23;95243.16;5116290;28;1176;-52
2022/03/29 08:10:55;;;;;;;;;;;;;;;21.12;30.55;95241.13;5115938;28;969;-51
2022/03/29 08:13:22;;;;;;;;;;;;;;;21.83;30.24;95238.88;5115997;28;1974;-51
2022/03/29 08:15:49;;;;;;;;;;;;;;;21.17;30.18;95227.72;5115677;28;1040;-51
2022/03/29 08:18:16;;;;;;;;;;;;;;;21.02;30.39;95232.69;5116397;28;1072;-51
2022/03/29 08:20:43;;;;;;;;;;;;;;;20.82;31.22;95224.72;5116199;28;1035;-51
2022/03/29 08:23:09;;;;;;;;;;;;;;;20.70;30.65;95224.63;5115869;28;1910;-51
2022/03/29 08:25:36;;;;;;;;;;;;;;;20.55;31.52;95221.38;5116000;28;1039;-51
2022/03/29 08:28:03;;;;;;;;;;;;;;;21.32;30.69;95215.63;5115876;28;1095;-53
2022/03/29 08:30:30;;;;;;;;;;;;;;;22.12;29.09;95212.75;5115818;28;1039;-52
2022/03/29 08:32:57;;;;;;;;;;;;;;;22.14;29.16;95207.03;5115775;28;1033;-51
2022/03/29 08:35:24;;;;;;;;;;;;;;;22.42;29.33;95201.84;5115619;28;1853;-52
2022/03/29 08:37:50;;;;;;;;;;;;;;;22.80;28.29;95206.03;5115698;28;1017;-51
2022/03/29 08:40:21;;;;;;;;;;;;;;;23.06;27.65;95198.44;5115787;28;961;-51
2022/03/29 08:42:48;;;;;;;;;;;;;;;23.08;28.47;95193.59;5115290;28;1910;-52
2022/03/29 08:45:16;;;;;;;;;;;;;;;23.01;27.82;95184.66;5115681;28;999;-51
2022/03/29 08:47:44;;;;;;;;;;;;;;;22.97;28.68;95180.75;5115617;28;1066;-52
2022/03/29 08:50:11;;;;;;;;;;;;;;;23.25;27.27;95176.50;5115559;28;1069;-51
2022/03/29 08:52:37;;;;;;;;;;;;;;;22.55;28.03;95175.41;5132584;27;1156;-51
2022/03/29 08:55:04;;;;;;;;;;;;;;;22.27;29.42;95165.19;5136028;27;1033;-52
2022/03/29 08:57:30;;;;;;;;;;;;;;;22.15;29.14;95170.59;5135960;27;1015;-52
2022/03/29 08:59:56;;;;;;;;;;;;;;;22.13;29.39;95164.56;5135936;27;953;-51
2022/03/29 09:02:22;;;;;;;;;;;;;;;21.98;29.11;95154.09;5135829;27;1910;-51
2022/03/29 09:05:08;;;;;;;;;;;;;;;21.99;28.99;95155.75;5135911;27;1078;-52
2022/03/29 09:07:46;;;;;;;;;;;;;;;21.61;28.71;95148.78;5135484;27;1071;-51
2022/03/29 09:10:12;;;;;;;;;;;;;;;21.03;29.78;95147.34;5135671;27;960;-51
2022/03/29 09:12:39;;;;;;;;;;;;;;;21.08;30.25;95139.34;5135519;27;969;-52
2022/03/29 09:15:05;;;;;;;;;;;;;;;21.39;29.53;95140.22;5135633;27;1060;-51
2022/03/29 09:17:42;;;;;;;;;;;;;;;21.73;30.09;95138.75;5135232;27;1163;-52
2022/03/29 09:20:12;;;;;;;;;;;;;;;21.61;29.77;95135.97;5135541;27;1055;-52
2022/03/29 09:22:46;;;;;;;;;;;;;;;21.77;29.35;95139.13;5135352;27;1914;-51
2022/03/29 09:25:14;;;;;;;;;;;;;;;22.22;29.70;95130.47;5135680;27;1028;-52
2022/03/29 09:27:55;;;;;;;;;;;;;;;22.09;28.63;95128.78;5135190;27;1027;-52
2022/03/29 09:30:22;;;;;;;;;;;;;;;21.96;29.48;95124.38;5135066;27;1083;-51
2022/03/29 09:32:52;;;;;;;;;;;;;;;22.07;29.76;95127.38;5135188;27;1035;-52
2022/03/29 09:35:18;;;;;;;;;;;;;;;22.27;29.55;95125.19;5135260;27;1039;-52
2022/03/29 09:37:45;;;;;;;;;;;;;;;22.12;29.43;95108.41;5135007;27;960;-51
2022/03/29 09:40:12;;;;;;;;;;;;;;;22.44;28.24;95110.84;5134988;27;1064;-51
2022/03/29 09:42:41;;;;;;;;;;;;;;;22.44;28.72;95102.69;5134769;27;2018;-51
2022/03/29 09:45:11;;;;;;;;;;;;;;;22.60;28.36;95096.53;5135054;27;991;-52
2022/03/29 09:47:37;;;;;;;;;;;;;;;22.32;28.40;95094.53;5134949;27;953;-52
2022/03/29 09:50:09;;;;;;;;;;;;;;;20.77;29.65;95089.53;5134381;27;1099;-51
2022/03/29 09:52:37;;;;;;;;;;;;;;;20.60;30.97;95092.03;5117440;27;1223;-51
2022/03/29 09:55:03;;;;;;;;;;;;;;;21.26;30.22;95090.38;5114185;28;964;-51
2022/03/29 09:57:36;;;;;;;;;;;;;;;21.08;29.69;95076.84;5114253;28;1067;-52
2022/03/29 10:00:04;;;;;;;;;;;;;;;21.11;30.78;95076.38;5114307;28;1024;-51
2022/03/29 10:02:38;;;;;;;;;;;;;;;21.72;30.51;95081.84;5114003;28;1913;-52
2022/03/29 10:05:04;;;;;;;;;;;;;;;21.63;29.98;95079.44;5114010;28;1837;-51
2022/03/29 10:07:40;;;;;;;;;;;;;;;21.11;30.08;95075.53;5112927;28;1072;-52
2022/03/29 10:10:07;;;;;;;;;;;;;;;20.27;30.24;95079.56;5113949;28;1028;-51
2022/03/29 10:12:33;;;;;;;;;;;;;;;19.59;31.13;95061.28;5113599;28;1032;-51
2022/03/29 10:15:00;;;;;;;;;;;;;;;20.15;30.76;95065.06;5113918;28;1036;-51
2022/03/29 10:17:27;;;;;;;;;;;;;;;20.09;31.76;95061.34;5113752;28;1075;-51
2022/03/29 10:19:54;;;;;;;;;;;;;;;19.66;30.48;95063.97;5113730;28;1846;-51
2022/03/29 10:22:21;;;;;;;;;;;;;;;19.41;31.16;95059.34;5113570;28;1906;-51
2022/03/29 10:24:47;;;;;;;;;;;;;;;20.26;30.59;95058.06;5113691;28;1083;-51
2022/03/29 10:27:15;;;;;;;;;;;;;;;20.74;29.31;95051.94;5113892;28;1011;-52
2022/03/29 10:29:41;;;;;;;;;;;;;;;20.83;29.25;95052.44;5113510;28;1092;-52
2022/03/29 10:32:07;;;;;;;;;;;;;;;20.86;29.09;95047.41;5113597;28;1043;-51
2022/03/29 10:34:39;;;;;;;;;;;;;;;20.56;29.14;95044.59;5113741;28;1074;-50
2022/03/29 10:37:10;;;;;;;;;;;;;;;20.52;28.86;95039.84;5113615;28;980;-51
2022/03/29 10:39:39;;;;;;;;;;;;;;;20.35;29.23;95035.00;5113831;28;1035;-51
2022/03/29 10:42:25;;;;;;;;;;;;;;;20.47;30.29;95041.34;5113363;28;1983;-51
2022/03/29 10:45:10;;;;;;;;;;;;;;;20.51;28.97;95030.88;5113318;28;1948;-51
2022/03/29 10:47:37;;;;;;;;;;;;;;;20.22;30.36;95035.13;5113662;28;1011;-51
2022/03/29 10:50:05;;;;;;;;;;;;;;;19.92;30.42;95030.41;5113585;28;996;-50
2022/03/29 10:52:41;;;;;;;;;;;;;;;19.57;30.62;95030.84;5129893;28;1221;-50
2022/03/29 10:55:15;;;;;;;;;;;;;;;19.47;30.63;95025.09;5134323;27;981;-51
2022/03/29 10:58:01;;;;;;;;;;;;;;;19.64;31.35;95023.50;5134170;27;1059;-51
2022/03/29 11:00:31;;;;;;;;;;;;;;;20.16;31.24;95011.59;5136531;27;1086;-51
2022/03/29 11:03:12;;;;;;;;;;;;;;;20.36;30.21;95009.50;5138340;27;1909;-51
2022/03/29 11:05:56;;;;;;;;;;;;;;;20.70;29.89;95009.16;5138344;27;1051;-51
2022/03/29 11:08:23;;;;;;;;;;;;;;;20.53;30.10;95004.31;5137703;27;1009;-51
2022/03/29 11:10:49;;;;;;;;;;;;;;;20.56;29.71;95006.56;5138204;27;1020;-51
2022/03/29 11:13:28;;;;;;;;;;;;;;;20.77;29.40;94999.88;5137869;27;1120;-51
2022/03/29 11:16:00;;;;;;;;;;;;;;;20.84;29.17;94999.78;5137817;27;1067;-51
2022/03/29 11:18:32;;;;;;;;;;;;;;;20.44;29.67;95003.78;5138002;27;964;-51
2022/03/29 11:21:04;;;;;;;;;;;;;;;20.28;30.67;94974.53;5137580;27;1012;-51
2022/03/29 11:23:35;;;;;;;;;;;;;;;20.08;30.85;94994.56;5137710;27;2000;-51
2022/03/29 11:26:10;;;;;;;;;;;;;;;19.57;30.74;94992.06;5137744;27;1007;-51
2022/03/29 11:28:37;;;;;;;;;;;;;;;19.01;32.07;94985.56;5137452;27;1106;-51
2022/03/29 11:31:03;;;;;;;;;;;;;;;18.89;31.97;94969.19;5137588;27;1023;-51
2022/03/29 11:33:30;;;;;;;;;;;;;;;18.74;32.10;94982.97;5137199;27;1052;-52
2022/03/29 11:35:56;;;;;;;;;;;;;;;18.64;32.18;94979.91;5137710;27;995;-51
2022/03/29 11:38:23;;;;;;;;;;;;;;;18.57;32.75;94982.63;5137435;27;977;-51
2022/03/29 11:40:48;;;;;;;;;;;;;;;18.47;32.20;94972.25;5137666;27;1018;-51
2022/03/29 11:43:21;;;;;;;;;;;;;;;18.51;32.56;94968.06;5136745;27;1906;-50
2022/03/29 11:45:47;;;;;;;;;;;;;;;18.58;32.12;94964.53;5137251;27;1099;-50
2022/03/29 11:48:14;;;;;;;;;;;;;;;18.51;32.20;94962.66;5137006;27;1032;-51
2022/03/29 11:50:40;;;;;;;;;;;;;;;18.58;33.09;94968.06;5136185;27;1124;-51
2022/03/29 11:53:18;;;;;;;;;;;;;;;18.65;32.57;94962.63;5116614;28;1007;-50
2022/03/29 11:55:59;;;;;;;;;;;;;;;18.66;32.85;94965.09;5116490;28;1102;-51
2022/03/29 11:58:25;;;;;;;;;;;;;;;18.70;32.27;94958.22;5116164;28;1091;-50
2022/03/29 12:00:55;;;;;;;;;;;;;;;18.61;33.40;94962.22;5116620;28;1036;-51
2022/03/29 12:03:28;;;;;;;;;;;;;;;18.38;32.71;94948.38;5116445;28;1909;-51
2022/03/29 12:06:08;;;;;;;;;;;;;;;18.16;33.39;94945.13;5116414;28;1000;-51
2022/03/29 12:08:48;;;;;;;;;;;;;;;18.02;34.05;94942.47;5116319;28;1023;-50
2022/03/29 12:11:15;;;;;;;;;;;;;;;17.85;33.27;94936.69;5115554;28;1087;-50
2022/03/29 12:13:46;;;;;;;;;;;;;;;17.76;32.98;94944.16;5115741;27;1018;-50
2022/03/29 12:16:19;;;;;;;;;;;;;;;17.59;32.48;94937.53;5116361;27;1683;-50
2022/03/29 12:18:45;;;;;;;;;;;;;;;17.40;32.85;94941.09;5115842;28;1052;-51
2022/03/29 12:21:13;;;;;;;;;;;;;;;17.39;33.34;94931.31;5116129;28;990;-50
2022/03/29 12:23:39;;;;;;;;;;;;;;;17.54;32.89;94943.53;5116093;28;1997;-50
2022/03/29 12:26:06;;;;;;;;;;;;;;;17.71;33.16;94927.72;5116071;28;1185;-50
2022/03/29 12:28:32;;;;;;;;;;;;;;;17.44;32.37;94929.63;5115851;28;1095;-50
2022/03/29 12:30:59;;;;;;;;;;;;;;;17.42;33.09;94930.88;5115802;28;968;-50
2022/03/29 12:33:25;;;;;;;;;;;;;;;17.36;33.16;94927.97;5116156;28;1011;-50
2022/03/29 12:36:10;;;;;;;;;;;;;;;17.37;32.61;94924.22;5115600;28;1032;-51
2022/03/29 12:39:02;;;;;;;;;;;;;;;17.36;32.68;94927.16;5115737;28;1031;-51
2022/03/29 12:41:34;;;;;;;;;;;;;;;17.61;32.84;94919.22;5114486;28;1099;-50
2022/03/29 12:44:01;;;;;;;;;;;;;;;17.69;31.76;94919.00;5115287;28;1937;-49
2022/03/29 12:46:28;;;;;;;;;;;;;;;17.66;32.14;94921.28;5115536;28;1021;-51
2022/03/29 12:48:55;;;;;;;;;;;;;;;17.73;32.62;94912.13;5115498;28;975;-50
2022/03/29 12:51:26;;;;;;;;;;;;;;;17.79;31.87;94915.03;5121153;27;1283;-51
2022/03/29 12:53:54;;;;;;;;;;;;;;;17.71;32.44;94902.56;5136171;27;1019;-51
2022/03/29 12:56:27;;;;;;;;;;;;;;;17.65;32.07;94898.81;5136010;27;1035;-50
2022/03/29 12:58:53;;;;;;;;;;;;;;;17.65;33.14;94904.22;5135703;27;2047;-50
2022/03/29 13:01:26;;;;;;;;;;;;;;;17.70;32.96;94900.88;5135608;27;999;-50
2022/03/29 13:03:52;;;;;;;;;;;;;;;17.69;33.36;94893.84;5135932;27;1910;-50
2022/03/29 13:06:18;;;;;;;;;;;;;;;17.53;32.62;94890.53;5135547;27;1071;-50
2022/03/29 13:08:44;;;;;;;;;;;;;;;17.75;32.64;94882.97;5135809;27;1048;-50
2022/03/29 13:11:14;;;;;;;;;;;;;;;17.94;32.24;94881.28;5135691;27;1046;-50
2022/03/29 13:13:40;;;;;;;;;;;;;;;18.08;32.08;94884.81;5135606;27;1030;-50
2022/03/29 13:16:08;;;;;;;;;;;;;;;18.06;32.30;94878.78;5135411;27;1007;-50
2022/03/29 13:18:36;;;;;;;;;;;;;;;18.23;32.32;94875.56;5135472;27;1098;-51
2022/03/29 13:21:07;;;;;;;;;;;;;;;18.41;32.27;94872.97;5135400;27;973;-50